sensor_id;sensor_type;location;lat;lon;timestamp;pressure;altitude;pressure_sealevel;temperature;humidity
8049;BME280;20935;42.660;23.342;2023-05-03T00:01:47;95069.84;;;22.83;44.62
8049;BME280;20935;42.660;23.342;2023-05-03T00:04:32;95076.53;;;22.82;44.61
8049;BME280;20935;42.660;23.342;2023-05-03T00:07:17;95077.28;;;22.83;44.51
8049;BME280;20935;42.660;23.342;2023-05-03T00:10:03;95086.69;;;22.82;44.30
8049;BME280;20935;42.660;23.342;2023-05-03T00:12:49;95103.84;;;22.82;44.40
8049;BME280;20935;42.660;23.342;2023-05-03T00:15:35;95092.91;;;22.82;44.20
8049;BME280;20935;42.660;23.342;2023-05-03T00:18:21;95083.19;;;22.81;44.03
8049;BME280;20935;42.660;23.342;2023-05-03T00:21:07;95081.22;;;22.82;44.20
8049;BME280;20935;42.660;23.342;2023-05-03T00:23:52;95087.94;;;22.81;44.37
8049;BME280;20935;42.660;23.342;2023-05-03T00:26:38;95098.09;;;22.80;44.05
8049;BME280;20935;42.660;23.342;2023-05-03T00:29:23;95085.19;;;22.81;44.35
8049;BME280;20935;42.660;23.342;2023-05-03T00:32:08;95082.91;;;22.79;43.96
8049;BME280;20935;42.660;23.342;2023-05-03T00:34:56;95080.94;;;22.80;44.09
8049;BME280;20935;42.660;23.342;2023-05-03T00:37:41;95088.38;;;22.79;44.03
8049;BME280;20935;42.660;23.342;2023-05-03T00:40:27;95083.84;;;22.76;44.00
8049;BME280;20935;42.660;23.342;2023-05-03T00:43:12;95090.97;;;22.74;44.37
8049;BME280;20935;42.660;23.342;2023-05-03T00:45:58;95087.50;;;22.73;44.17
8049;BME280;20935;42.660;23.342;2023-05-03T00:48:45;95080.06;;;22.74;44.09
8049;BME280;20935;42.660;23.342;2023-05-03T00:51:33;95081.56;;;22.75;43.90
8049;BME280;20935;42.660;23.342;2023-05-03T00:54:19;95083.56;;;22.74;44.14
8049;BME280;20935;42.660;23.342;2023-05-03T00:57:05;95085.06;;;22.75;43.83
8049;BME280;20935;42.660;23.342;2023-05-03T00:59:51;95098.72;;;22.75;43.97
8049;BME280;20935;42.660;23.342;2023-05-03T01:02:36;95096.00;;;22.75;43.95
8049;BME280;20935;42.660;23.342;2023-05-03T01:05:22;95097.22;;;22.74;43.89
8049;BME280;20935;42.660;23.342;2023-05-03T01:08:12;95075.34;;;22.74;43.80
8049;BME280;20935;42.660;23.342;2023-05-03T01:11:06;95077.31;;;22.74;43.79
8049;BME280;20935;42.660;23.342;2023-05-03T01:13:55;95079.31;;;22.73;44.25
8049;BME280;20935;42.660;23.342;2023-05-03T01:16:46;95074.59;;;22.74;43.89
8049;BME280;20935;42.660;23.342;2023-05-03T01:19:36;95064.59;;;22.71;44.17
8049;BME280;20935;42.660;23.342;2023-05-03T01:22:30;95050.94;;;22.71;44.00
8049;BME280;20935;42.660;23.342;2023-05-03T01:25:17;95054.88;;;22.70;44.28
8049;BME280;20935;42.660;23.342;2023-05-03T01:28:03;95072.03;;;22.70;44.11
8049;BME280;20935;42.660;23.342;2023-05-03T01:30:49;95070.81;;;22.71;44.29
8049;BME280;20935;42.660;23.342;2023-05-03T01:33:44;95068.53;;;22.70;43.83
8049;BME280;20935;42.660;23.342;2023-05-03T01:36:31;95069.31;;;22.70;44.03
8049;BME280;20935;42.660;23.342;2023-05-03T01:39:22;95067.78;;;22.69;44.25
8049;BME280;20935;42.660;23.342;2023-05-03T01:42:12;95056.88;;;22.69;43.73
8049;BME280;20935;42.660;23.342;2023-05-03T01:44:59;95061.59;;;22.69;43.71
8049;BME280;20935;42.660;23.342;2023-05-03T01:47:46;95055.38;;;22.68;43.86
8049;BME280;20935;42.660;23.342;2023-05-03T01:50:32;95048.38;;;22.67;44.08
8049;BME280;20935;42.660;23.342;2023-05-03T01:53:18;95057.31;;;22.68;44.15
8049;BME280;20935;42.660;23.342;2023-05-03T01:56:04;95044.88;;;22.67;44.24
8049;BME280;20935;42.660;23.342;2023-05-03T01:58:52;95037.44;;;22.67;44.13
8049;BME280;20935;42.660;23.342;2023-05-03T02:01:38;95029.69;;;22.66;44.06
8049;BME280;20935;42.660;23.342;2023-05-03T02:04:23;95028.50;;;22.67;44.20
8049;BME280;20935;42.660;23.342;2023-05-03T02:07:09;95012.56;;;22.65;43.96
8049;BME280;20935;42.660;23.342;2023-05-03T02:09:54;95018.78;;;22.66;44.03
8049;BME280;20935;42.660;23.342;2023-05-03T02:12:40;95012.56;;;22.65;44.23
8049;BME280;20935;42.660;23.342;2023-05-03T02:15:26;95013.78;;;22.64;44.07
8049;BME280;20935;42.660;23.342;2023-05-03T02:18:12;95013.31;;;22.66;44.08
8049;BME280;20935;42.660;23.342;2023-05-03T02:20:59;94998.16;;;22.65;44.08
8049;BME280;20935;42.660;23.342;2023-05-03T02:23:44;95004.84;;;22.64;43.62
8049;BME280;20935;42.660;23.342;2023-05-03T02:26:30;94999.38;;;22.64;43.56
8049;BME280;20935;42.660;23.342;2023-05-03T02:29:16;95002.56;;;22.62;43.57
8049;BME280;20935;42.660;23.342;2023-05-03T02:32:03;95003.31;;;22.63;43.82
8049;BME280;20935;42.660;23.342;2023-05-03T02:34:48;95000.13;;;22.64;43.71
8049;BME280;20935;42.660;23.342;2023-05-03T02:37:34;94994.19;;;22.66;43.66
8049;BME280;20935;42.660;23.342;2023-05-03T02:40:19;95003.91;;;22.67;44.02
8049;BME280;20935;42.660;23.342;2023-05-03T02:43:04;95004.66;;;22.67;43.51
8049;BME280;20935;42.660;23.342;2023-05-03T02:45:50;95016.34;;;22.68;43.85
8049;BME280;20935;42.660;23.342;2023-05-03T02:48:37;95002.38;;;22.66;44.00
8049;BME280;20935;42.660;23.342;2023-05-03T02:51:23;95003.91;;;22.67;43.58
8049;BME280;20935;42.660;23.342;2023-05-03T02:54:08;94998.91;;;22.65;43.86
8049;BME280;20935;42.660;23.342;2023-05-03T02:56:53;94997.69;;;22.66;43.50
8049;BME280;20935;42.660;23.342;2023-05-03T02:59:39;94994.19;;;22.66;43.89
8049;BME280;20935;42.660;23.342;2023-05-03T03:02:24;94995.44;;;22.65;43.70
8049;BME280;20935;42.660;23.342;2023-05-03T03:05:11;95004.38;;;22.65;43.53
8049;BME280;20935;42.660;23.342;2023-05-03T03:07:56;95016.03;;;22.66;43.78
8049;BME280;20935;42.660;23.342;2023-05-03T03:10:42;95004.38;;;22.65;43.43
8049;BME280;20935;42.660;23.342;2023-05-03T03:13:27;95011.81;;;22.65;43.81
8049;BME280;20935;42.660;23.342;2023-05-03T03:16:12;95014.56;;;22.65;43.70
8049;BME280;20935;42.660;23.342;2023-05-03T03:18:58;95018.03;;;22.65;43.72
8049;BME280;20935;42.660;23.342;2023-05-03T03:21:45;95022.00;;;22.64;43.61
8049;BME280;20935;42.660;23.342;2023-05-03T03:24:30;95021.69;;;22.62;43.35
8049;BME280;20935;42.660;23.342;2023-05-03T03:27:15;95026.69;;;22.64;43.72
8049;BME280;20935;42.660;23.342;2023-05-03T03:30:01;95034.13;;;22.63;43.26
8049;BME280;20935;42.660;23.342;2023-05-03T03:32:48;95042.31;;;22.63;43.48
8049;BME280;20935;42.660;23.342;2023-05-03T03:35:33;95044.47;;;22.59;43.33
8049;BME280;20935;42.660;23.342;2023-05-03T03:38:20;95044.47;;;22.59;43.23
8049;BME280;20935;42.660;23.342;2023-05-03T03:41:05;95049.06;;;22.53;43.77
8049;BME280;20935;42.660;23.342;2023-05-03T03:43:51;95054.34;;;22.57;43.37
8049;BME280;20935;42.660;23.342;2023-05-03T03:46:36;95060.44;;;22.52;43.63
8049;BME280;20935;42.660;23.342;2023-05-03T03:49:22;95061.19;;;22.52;43.47
8049;BME280;20935;42.660;23.342;2023-05-03T03:52:07;95066.34;;;22.50;43.49
8049;BME280;20935;42.660;23.342;2023-05-03T03:54:55;95075.78;;;22.49;43.95
8049;BME280;20935;42.660;23.342;2023-05-03T03:57:40;95068.19;;;22.53;43.67
8049;BME280;20935;42.660;23.342;2023-05-03T04:00:26;95073.16;;;22.55;43.57
8049;BME280;20935;42.660;23.342;2023-05-03T04:03:11;95076.38;;;22.53;43.67
8049;BME280;20935;42.660;23.342;2023-05-03T04:05:57;95081.06;;;22.53;43.40
8049;BME280;20935;42.660;23.342;2023-05-03T04:08:43;95095.94;;;22.52;43.69
8049;BME280;20935;42.660;23.342;2023-05-03T04:11:29;95094.88;;;22.49;43.46
8049;BME280;20935;42.660;23.342;2023-05-03T04:14:15;95088.66;;;22.48;43.72
8049;BME280;20935;42.660;23.342;2023-05-03T04:17:00;95089.88;;;22.47;43.42
8049;BME280;20935;42.660;23.342;2023-05-03T04:19:46;95092.88;;;22.49;43.34
8049;BME280;20935;42.660;23.342;2023-05-03T04:22:32;95106.09;;;22.51;43.62
8049;BME280;20935;42.660;23.342;2023-05-03T04:25:17;95101.56;;;22.48;43.65
8049;BME280;20935;42.660;23.342;2023-05-03T04:28:04;95103.53;;;22.47;43.69
8049;BME280;20935;42.660;23.342;2023-05-03T04:30:50;95114.00;;;22.49;43.63
8049;BME280;20935;42.660;23.342;2023-05-03T04:33:35;95118.22;;;22.50;43.50
8049;BME280;20935;42.660;23.342;2023-05-03T04:36:21;95115.97;;;22.48;43.68
8049;BME280;20935;42.660;23.342;2023-05-03T04:39:08;95118.69;;;22.48;43.25
8049;BME280;20935;42.660;23.342;2023-05-03T04:41:57;95123.41;;;22.48;43.65
8049;BME280;20935;42.660;23.342;2023-05-03T04:44:44;95123.41;;;22.48;43.63
8049;BME280;20935;42.660;23.342;2023-05-03T04:47:29;95129.63;;;22.48;43.35
8049;BME280;20935;42.660;23.342;2023-05-03T04:50:15;95137.06;;;22.48;43.46
8049;BME280;20935;42.660;23.342;2023-05-03T04:53:00;95143.72;;;22.47;43.36
8049;BME280;20935;42.660;23.342;2023-05-03T04:55:46;95149.19;;;22.47;43.15
8049;BME280;20935;42.660;23.342;2023-05-03T04:58:31;95151.47;;;22.48;43.37
8049;BME280;20935;42.660;23.342;2023-05-03T05:01:18;95156.16;;;22.48;43.22
8049;BME280;20935;42.660;23.342;2023-05-03T05:04:09;95171.78;;;22.47;43.20
8049;BME280;20935;42.660;23.342;2023-05-03T05:06:54;95178.47;;;22.46;43.34
8049;BME280;20935;42.660;23.342;2023-05-03T05:09:40;95179.22;;;22.47;43.30
8049;BME280;20935;42.660;23.342;2023-05-03T05:12:26;95175.13;;;22.42;43.19
8049;BME280;20935;42.660;23.342;2023-05-03T05:15:11;95170.88;;;22.41;43.59
8049;BME280;20935;42.660;23.342;2023-05-03T05:17:58;95187.56;;;22.43;43.39
8049;BME280;20935;42.660;23.342;2023-05-03T05:20:43;95166.00;;;22.45;43.46
8049;BME280;20935;42.660;23.342;2023-05-03T05:23:29;95178.19;;;22.44;43.12
8049;BME280;20935;42.660;23.342;2023-05-03T05:26:14;95173.59;;;22.41;43.59
8049;BME280;20935;42.660;23.342;2023-05-03T05:29:00;95173.16;;;22.43;43.46
8049;BME280;20935;42.660;23.342;2023-05-03T05:31:45;95172.25;;;22.46;43.42
8049;BME280;20935;42.660;23.342;2023-05-03T05:34:32;95178.19;;;22.44;43.21
8049;BME280;20935;42.660;23.342;2023-05-03T05:37:17;95182.25;;;22.49;43.12
8049;BME280;20935;42.660;23.342;2023-05-03T05:40:04;95175.88;;;22.52;43.53
8049;BME280;20935;42.660;23.342;2023-05-03T05:42:50;95177.41;;;22.53;43.51
8049;BME280;20935;42.660;23.342;2023-05-03T05:45:36;95181.63;;;22.54;43.07
8049;BME280;20935;42.660;23.342;2023-05-03T05:48:22;95172.22;;;22.55;43.42
8049;BME280;20935;42.660;23.342;2023-05-03T05:51:09;95178.44;;;22.56;43.07
8049;BME280;20935;42.660;23.342;2023-05-03T05:53:54;95168.28;;;22.56;43.41
8049;BME280;20935;42.660;23.342;2023-05-03T05:56:40;95178.44;;;22.56;43.16
8049;BME280;20935;42.660;23.342;2023-05-03T05:59:25;95173.75;;;22.56;43.35
8049;BME280;20935;42.660;23.342;2023-05-03T06:02:14;95176.47;;;22.56;42.95
8049;BME280;20935;42.660;23.342;2023-05-03T06:05:00;95173.75;;;22.56;42.99
8049;BME280;20935;42.660;23.342;2023-05-03T06:07:48;95173.75;;;22.56;42.94
8049;BME280;20935;42.660;23.342;2023-05-03T06:10:34;95173.75;;;22.56;43.21
8049;BME280;20935;42.660;23.342;2023-05-03T06:13:19;95175.72;;;22.56;42.85
8049;BME280;20935;42.660;23.342;2023-05-03T06:16:05;95170.25;;;22.56;43.35
8049;BME280;20935;42.660;23.342;2023-05-03T06:18:50;95172.97;;;22.56;43.34
8049;BME280;20935;42.660;23.342;2023-05-03T06:21:36;95172.97;;;22.56;43.38
8049;BME280;20935;42.660;23.342;2023-05-03T06:24:23;95166.31;;;22.57;42.95
8049;BME280;20935;42.660;23.342;2023-05-03T06:27:08;95165.06;;;22.58;43.29
8049;BME280;20935;42.660;23.342;2023-05-03T06:29:53;95168.56;;;22.58;43.37
8049;BME280;20935;42.660;23.342;2023-05-03T06:32:40;95165.38;;;22.60;43.49
8049;BME280;20935;42.660;23.342;2023-05-03T06:35:26;95163.41;;;22.60;43.44
8049;BME280;20935;42.660;23.342;2023-05-03T06:38:12;95153.25;;;22.61;43.08
8049;BME280;20935;42.660;23.342;2023-05-03T06:40:59;95154.75;;;22.62;43.17
8049;BME280;20935;42.660;23.342;2023-05-03T06:43:44;95146.09;;;22.63;43.03
8049;BME280;20935;42.660;23.342;2023-05-03T06:46:30;95165.22;;;22.63;43.15
8049;BME280;20935;42.660;23.342;2023-05-03T06:49:15;95149.09;;;22.65;43.17
8049;BME280;20935;42.660;23.342;2023-05-03T06:52:01;95141.97;;;22.68;42.88
8049;BME280;20935;42.660;23.342;2023-05-03T06:54:46;95135.00;;;22.67;42.90
8049;BME280;20935;42.660;23.342;2023-05-03T06:57:33;95134.25;;;22.66;42.86
8049;BME280;20935;42.660;23.342;2023-05-03T07:00:19;95137.72;;;22.67;43.35
8049;BME280;20935;42.660;23.342;2023-05-03T07:03:06;95126.81;;;22.67;43.32
8049;BME280;20935;42.660;23.342;2023-05-03T07:05:51;95119.38;;;22.67;43.16
8049;BME280;20935;42.660;23.342;2023-05-03T07:08:37;95120.13;;;22.68;42.94
8049;BME280;20935;42.660;23.342;2023-05-03T07:11:22;95125.16;;;22.69;43.24
8049;BME280;20935;42.660;23.342;2023-05-03T07:14:09;95139.56;;;22.70;42.94
8049;BME280;20935;42.660;23.342;2023-05-03T07:16:55;95142.28;;;22.70;42.96
8049;BME280;20935;42.660;23.342;2023-05-03T07:19:40;95145.03;;;22.70;43.19
8049;BME280;20935;42.660;23.342;2023-05-03T07:22:26;95126.22;;;22.72;43.08
8049;BME280;20935;42.660;23.342;2023-05-03T07:25:11;95137.13;;;22.72;42.90
8049;BME280;20935;42.660;23.342;2023-05-03T07:27:59;95132.44;;;22.72;43.08
8049;BME280;20935;42.660;23.342;2023-05-03T07:30:46;95137.41;;;22.74;42.92
8049;BME280;20935;42.660;23.342;2023-05-03T07:33:33;95132.72;;;22.74;42.94
8049;BME280;20935;42.660;23.342;2023-05-03T07:36:20;95128.00;;;22.75;43.25
8049;BME280;20935;42.660;23.342;2023-05-03T07:39:06;95111.16;;;22.76;43.43
8049;BME280;20935;42.660;23.342;2023-05-03T07:41:51;95112.66;;;22.77;43.36
8049;BME280;20935;42.660;23.342;2023-05-03T07:44:37;95107.50;;;22.79;43.14
8049;BME280;20935;42.660;23.342;2023-05-03T07:47:24;95114.50;;;22.80;43.41
8049;BME280;20935;42.660;23.342;2023-05-03T07:50:09;95116.75;;;22.82;43.39
8049;BME280;20935;42.660;23.342;2023-05-03T07:52:54;95121.00;;;22.83;43.09
8049;BME280;20935;42.660;23.342;2023-05-03T07:55:39;95117.03;;;22.84;43.02
8049;BME280;20935;42.660;23.342;2023-05-03T07:58:25;95112.34;;;22.84;43.46
8049;BME280;20935;42.660;23.342;2023-05-03T08:01:10;95118.09;;;22.86;43.35
8049;BME280;20935;42.660;23.342;2023-05-03T08:03:57;95127.50;;;22.85;42.98
8049;BME280;20935;42.660;23.342;2023-05-03T08:06:43;95128.56;;;22.88;43.38
8049;BME280;20935;42.660;23.342;2023-05-03T08:09:28;95121.88;;;22.89;43.21
8049;BME280;20935;42.660;23.342;2023-05-03T08:12:14;95127.63;;;22.91;43.22
8049;BME280;20935;42.660;23.342;2023-05-03T08:15:00;95128.38;;;22.91;42.93
8049;BME280;20935;42.660;23.342;2023-05-03T08:17:47;95132.16;;;22.94;43.23
8049;BME280;20935;42.660;23.342;2023-05-03T08:20:34;95131.22;;;22.97;43.27
8049;BME280;20935;42.660;23.342;2023-05-03T08:23:21;95127.28;;;22.98;42.92
8049;BME280;20935;42.660;23.342;2023-05-03T08:26:06;95130.31;;;23.00;43.04
8049;BME280;20935;42.660;23.342;2023-05-03T08:28:52;95135.31;;;23.02;42.95
8049;BME280;20935;42.660;23.342;2023-05-03T08:31:38;95135.13;;;23.05;43.06
8049;BME280;20935;42.660;23.342;2023-05-03T08:34:24;95130.72;;;23.08;42.58
8049;BME280;20935;42.660;23.342;2023-05-03T08:37:11;95150.13;;;23.10;42.73
8049;BME280;20935;42.660;23.342;2023-05-03T08:39:59;95146.50;;;23.13;42.71
8049;BME280;20935;42.660;23.342;2023-05-03T08:42:45;95135.56;;;23.13;42.95
8049;BME280;20935;42.660;23.342;2023-05-03T08:45:31;95119.16;;;23.13;42.40
8049;BME280;20935;42.660;23.342;2023-05-03T08:48:17;95126.13;;;23.14;42.81
8049;BME280;20935;42.660;23.342;2023-05-03T08:51:03;95116.69;;;23.15;42.80
8049;BME280;20935;42.660;23.342;2023-05-03T08:53:50;95126.13;;;23.14;42.92
8049;BME280;20935;42.660;23.342;2023-05-03T08:56:39;95132.81;;;23.13;42.87
8049;BME280;20935;42.660;23.342;2023-05-03T08:59:25;95134.81;;;23.12;42.68
8049;BME280;20935;42.660;23.342;2023-05-03T09:02:13;95133.28;;;23.11;42.72
8049;BME280;20935;42.660;23.342;2023-05-03T09:04:58;95145.72;;;23.12;43.04
8049;BME280;20935;42.660;23.342;2023-05-03T09:07:59;95137.53;;;23.12;43.01
8049;BME280;20935;42.660;23.342;2023-05-03T09:10:46;95134.31;;;23.14;42.99
8049;BME280;20935;42.660;23.342;2023-05-03T09:13:31;95122.94;;;23.15;42.79
8049;BME280;20935;42.660;23.342;2023-05-03T09:16:26;95120.47;;;23.17;42.62
8049;BME280;20935;42.660;23.342;2023-05-03T09:19:14;95118.50;;;23.18;43.05
8049;BME280;20935;42.660;23.342;2023-05-03T09:22:05;95110.31;;;23.18;43.06
8049;BME280;20935;42.660;23.342;2023-05-03T09:24:51;95111.38;;;23.20;42.60
8049;BME280;20935;42.660;23.342;2023-05-03T09:27:41;95105.59;;;23.18;42.78
8049;BME280;20935;42.660;23.342;2023-05-03T09:30:26;95115.31;;;23.19;43.03
8049;BME280;20935;42.660;23.342;2023-05-03T09:33:12;95104.38;;;23.19;42.72
8049;BME280;20935;42.660;23.342;2023-05-03T09:36:04;95098.16;;;23.19;42.78
8049;BME280;20935;42.660;23.342;2023-05-03T09:38:50;95092.22;;;23.20;42.89
8049;BME280;20935;42.660;23.342;2023-05-03T09:41:36;95087.03;;;23.22;43.09
8049;BME280;20935;42.660;23.342;2023-05-03T09:44:39;95079.59;;;23.23;42.82
8049;BME280;20935;42.660;23.342;2023-05-03T09:47:24;95085.38;;;23.25;42.60
8049;BME280;20935;42.660;23.342;2023-05-03T09:50:11;95075.91;;;23.26;42.96
8049;BME280;20935;42.660;23.342;2023-05-03T09:52:59;95082.91;;;23.27;42.97
8049;BME280;20935;42.660;23.342;2023-05-03T09:55:46;95073.00;;;23.29;42.59
8049;BME280;20935;42.660;23.342;2023-05-03T09:58:34;95065.56;;;23.30;43.10
8049;BME280;20935;42.660;23.342;2023-05-03T10:01:23;95068.59;;;23.32;42.54
8049;BME280;20935;42.660;23.342;2023-05-03T10:04:09;95063.41;;;23.34;42.87
8049;BME280;20935;42.660;23.342;2023-05-03T10:06:58;95063.13;;;23.32;42.94
8049;BME280;20935;42.660;23.342;2023-05-03T10:09:46;95061.63;;;23.31;42.86
8049;BME280;20935;42.660;23.342;2023-05-03T10:12:32;95067.84;;;23.31;42.95
8049;BME280;20935;42.660;23.342;2023-05-03T10:15:19;95066.31;;;23.30;42.74
8049;BME280;20935;42.660;23.342;2023-05-03T10:18:09;95063.41;;;23.34;43.14
8049;BME280;20935;42.660;23.342;2023-05-03T10:21:01;95043.81;;;23.35;42.79
8049;BME280;20935;42.660;23.342;2023-05-03T10:24:12;95042.59;;;23.36;42.81
8049;BME280;20935;42.660;23.342;2023-05-03T10:26:58;95041.06;;;23.35;42.61
8049;BME280;20935;42.660;23.342;2023-05-03T10:29:47;95022.41;;;23.34;42.64
8049;BME280;20935;42.660;23.342;2023-05-03T10:32:35;95020.41;;;23.34;42.69
8049;BME280;20935;42.660;23.342;2023-05-03T10:35:26;95024.66;;;23.35;42.73
8049;BME280;20935;42.660;23.342;2023-05-03T10:38:13;95021.19;;;23.35;42.69
8049;BME280;20935;42.660;23.342;2023-05-03T10:40:59;95015.25;;;23.36;42.72
8049;BME280;20935;42.660;23.342;2023-05-03T10:43:46;95019.97;;;23.36;42.73
8049;BME280;20935;42.660;23.342;2023-05-03T10:46:33;95013.25;;;23.37;42.58
8049;BME280;20935;42.660;23.342;2023-05-03T10:49:20;95017.97;;;23.36;42.74
8049;BME280;20935;42.660;23.342;2023-05-03T10:52:44;95021.44;;;23.37;42.63
8049;BME280;20935;42.660;23.342;2023-05-03T10:55:30;95021.19;;;23.35;43.07
8049;BME280;20935;42.660;23.342;2023-05-03T10:58:16;95029.84;;;23.33;42.89
8049;BME280;20935;42.660;23.342;2023-05-03T11:01:02;95020.59;;;23.31;43.00
8049;BME280;20935;42.660;23.342;2023-05-03T11:03:53;95012.41;;;23.31;43.26
8049;BME280;20935;42.660;23.342;2023-05-03T11:06:42;95016.34;;;23.30;42.99
8049;BME280;20935;42.660;23.342;2023-05-03T11:09:32;95013.16;;;23.31;42.82
8049;BME280;20935;42.660;23.342;2023-05-03T11:12:17;95018.63;;;23.31;43.05
8049;BME280;20935;42.660;23.342;2023-05-03T11:15:03;95011.66;;;23.30;43.11
8049;BME280;20935;42.660;23.342;2023-05-03T11:17:48;95004.47;;;23.33;42.80
8049;BME280;20935;42.660;23.342;2023-05-03T11:20:34;95003.56;;;23.36;42.79
8049;BME280;20935;42.660;23.342;2023-05-03T11:23:24;95008.53;;;23.37;43.02
8049;BME280;20935;42.660;23.342;2023-05-03T11:26:11;94991.84;;;23.35;42.87
8049;BME280;20935;42.660;23.342;2023-05-03T11:28:56;94981.69;;;23.36;43.01
8049;BME280;20935;42.660;23.342;2023-05-03T11:31:42;94985.91;;;23.37;42.79
8049;BME280;20935;42.660;23.342;2023-05-03T11:34:27;94994.88;;;23.37;43.06
8049;BME280;20935;42.660;23.342;2023-05-03T11:37:13;94997.59;;;23.37;43.06
8049;BME280;20935;42.660;23.342;2023-05-03T11:39:59;94996.38;;;23.38;42.95
8049;BME280;20935;42.660;23.342;2023-05-03T11:42:53;94991.94;;;23.41;43.01
8049;BME280;20935;42.660;23.342;2023-05-03T11:45:42;94979.63;;;23.46;42.80
8049;BME280;20935;42.660;23.342;2023-05-03T11:48:28;94963.53;;;23.48;43.07
8049;BME280;20935;42.660;23.342;2023-05-03T11:51:20;94966.72;;;23.46;42.81
8049;BME280;20935;42.660;23.342;2023-05-03T11:54:06;94963.97;;;23.46;42.62
8049;BME280;20935;42.660;23.342;2023-05-03T11:56:54;94965.75;;;23.49;42.91
8049;BME280;20935;42.660;23.342;2023-05-03T11:59:42;94975.47;;;23.50;42.99
8049;BME280;20935;42.660;23.342;2023-05-03T12:02:28;94962.31;;;23.49;42.95
8049;BME280;20935;42.660;23.342;2023-05-03T12:05:14;94960.59;;;23.51;42.77
8049;BME280;20935;42.660;23.342;2023-05-03T12:08:00;94952.38;;;23.51;42.78
8049;BME280;20935;42.660;23.342;2023-05-03T12:10:46;94958.63;;;23.52;43.03
8049;BME280;20935;42.660;23.342;2023-05-03T12:13:33;94978.97;;;23.51;42.83
8049;BME280;20935;42.660;23.342;2023-05-03T12:16:19;94965.75;;;23.49;42.67
8049;BME280;20935;42.660;23.342;2023-05-03T12:19:05;94968.50;;;23.49;42.80
8049;BME280;20935;42.660;23.342;2023-05-03T12:21:51;94969.00;;;23.48;42.94
8049;BME280;20935;42.660;23.342;2023-05-03T12:24:36;94951.81;;;23.47;42.79
8049;BME280;20935;42.660;23.342;2023-05-03T12:27:21;94963.22;;;23.46;42.74
8049;BME280;20935;42.660;23.342;2023-05-03T12:30:08;94966.44;;;23.44;43.30
8049;BME280;20935;42.660;23.342;2023-05-03T12:32:56;94967.34;;;23.41;43.26
8049;BME280;20935;42.660;23.342;2023-05-03T12:35:41;94960.84;;;23.38;43.16
8049;BME280;20935;42.660;23.342;2023-05-03T12:38:27;94971.50;;;23.36;43.08
8049;BME280;20935;42.660;23.342;2023-05-03T12:41:12;94963.00;;;23.34;42.93
8049;BME280;20935;42.660;23.342;2023-05-03T12:43:58;94960.00;;;23.32;43.38
8049;BME280;20935;42.660;23.342;2023-05-03T12:46:44;94962.44;;;23.30;43.36
8049;BME280;20935;42.660;23.342;2023-05-03T12:49:31;94964.13;;;23.28;43.41
8049;BME280;20935;42.660;23.342;2023-05-03T12:52:17;94956.88;;;23.25;43.27
8049;BME280;20935;42.660;23.342;2023-05-03T12:55:03;94950.56;;;23.19;43.57
8049;BME280;20935;42.660;23.342;2023-05-03T12:57:49;94947.53;;;23.17;43.62
8049;BME280;20935;42.660;23.342;2023-05-03T13:00:35;94955.44;;;23.15;43.75
8049;BME280;20935;42.660;23.342;2023-05-03T13:03:20;94951.97;;;23.14;43.35
8049;BME280;20935;42.660;23.342;2023-05-03T13:06:07;94953.47;;;23.15;43.34
8049;BME280;20935;42.660;23.342;2023-05-03T13:08:53;94955.44;;;23.15;43.66
8049;BME280;20935;42.660;23.342;2023-05-03T13:11:38;94956.22;;;23.15;43.47
8049;BME280;20935;42.660;23.342;2023-05-03T13:14:24;94954.69;;;23.14;43.37
8049;BME280;20935;42.660;23.342;2023-05-03T13:17:09;94958.63;;;23.13;43.56
8049;BME280;20935;42.660;23.342;2023-05-03T13:19:56;94964.59;;;23.12;43.45
8049;BME280;20935;42.660;23.342;2023-05-03T13:22:43;94976.75;;;23.11;43.60
8049;BME280;20935;42.660;23.342;2023-05-03T13:25:28;94978.72;;;23.10;43.67
8049;BME280;20935;42.660;23.342;2023-05-03T13:28:13;94972.97;;;23.08;43.74
8049;BME280;20935;42.660;23.342;2023-05-03T13:31:03;94969.47;;;23.08;43.54
8049;BME280;20935;42.660;23.342;2023-05-03T13:33:49;94976.16;;;23.07;43.55
8049;BME280;20935;42.660;23.342;2023-05-03T13:36:37;94975.41;;;23.06;43.71
8049;BME280;20935;42.660;23.342;2023-05-03T13:39:24;94993.50;;;23.04;43.72
8049;BME280;20935;42.660;23.342;2023-05-03T13:42:09;94986.53;;;23.03;43.54
8049;BME280;20935;42.660;23.342;2023-05-03T13:44:55;94990.47;;;23.02;43.85
8049;BME280;20935;42.660;23.342;2023-05-03T13:47:40;94991.22;;;23.02;43.93
8049;BME280;20935;42.660;23.342;2023-05-03T13:50:28;95001.13;;;23.00;43.78
8049;BME280;20935;42.660;23.342;2023-05-03T13:53:14;95003.56;;;22.98;43.70
8049;BME280;20935;42.660;23.342;2023-05-03T13:56:01;95012.50;;;22.98;43.96
8049;BME280;20935;42.660;23.342;2023-05-03T13:58:46;95014.22;;;22.96;43.89
8049;BME280;20935;42.660;23.342;2023-05-03T14:01:31;95004.41;;;22.89;44.16
8049;BME280;20935;42.660;23.342;2023-05-03T14:04:17;94997.44;;;22.88;43.81
8049;BME280;20935;42.660;23.342;2023-05-03T14:07:02;95000.16;;;22.88;43.85
8049;BME280;20935;42.660;23.342;2023-05-03T14:09:48;94990.00;;;22.88;44.13
8049;BME280;20935;42.660;23.342;2023-05-03T14:12:35;94992.72;;;22.88;43.95
8049;BME280;20935;42.660;23.342;2023-05-03T14:15:20;94994.69;;;22.88;44.14
8049;BME280;20935;42.660;23.342;2023-05-03T14:18:06;94992.72;;;22.88;44.31
8049;BME280;20935;42.660;23.342;2023-05-03T14:20:51;95000.16;;;22.88;44.29
8049;BME280;20935;42.660;23.342;2023-05-03T14:23:36;94996.66;;;22.87;44.09
8049;BME280;20935;42.660;23.342;2023-05-03T14:26:23;94998.19;;;22.88;43.90
8049;BME280;20935;42.660;23.342;2023-05-03T14:29:11;95001.50;;;22.92;44.31
8049;BME280;20935;42.660;23.342;2023-05-03T14:31:56;95000.56;;;22.96;43.99
8049;BME280;20935;42.660;23.342;2023-05-03T14:34:42;94999.53;;;22.93;44.14
8049;BME280;20935;42.660;23.342;2023-05-03T14:37:27;94996.31;;;22.94;43.86
8049;BME280;20935;42.660;23.342;2023-05-03T14:40:13;94984.63;;;22.94;44.11
8049;BME280;20935;42.660;23.342;2023-05-03T14:42:58;94992.06;;;22.93;44.10